Time;durP1;ratioP1;P1;durP2;ratioP2;P2;SDS_P1;SDS_P2;PMS_P1;PMS_P2;Temp;Humidity;BMP_temperature;BMP_pressure;BME280_temperature;BME280_humidity;BME280_pressure;Samples;Min_cycle;Max_cycle;Signal;HPM_P1;HPM_P2
2022/03/03 00:00:08;;;;;;;4.12;3.83;;;;;;;5.44;66.30;100631.39;456573;114;922587;-69
2022/03/03 00:01:14;;;;;;;3.77;3.51;;;;;;;5.41;66.41;100621.75;458647;113;930556;-70
2022/03/03 00:02:17;;;;;;;3.74;3.45;;;;;;;5.41;66.45;100627.16;460872;114;922622;-70
2022/03/03 00:03:21;;;;;;;4.37;3.99;;;;;;;5.40;66.41;100628.18;462504;114;930529;-69
2022/03/03 00:04:25;;;;;;;4.57;4.17;;;;;;;5.38;66.39;100635.66;459468;114;930711;-68
2022/03/03 00:05:28;;;;;;;3.99;3.64;;;;;;;5.38;66.51;100627.54;457622;113;930609;-69
2022/03/03 00:06:31;;;;;;;3.59;3.29;;;;;;;5.39;66.49;100631.93;459296;114;930364;-71
2022/03/03 00:07:35;;;;;;;4.58;4.23;;;;;;;5.38;66.51;100632.95;457902;113;922691;-69
2022/03/03 00:08:38;;;;;;;4.78;4.38;;;;;;;5.38;66.43;100623.99;458693;114;922725;-70
2022/03/03 00:09:41;;;;;;;4.08;3.77;;;;;;;5.36;66.50;100620.61;438975;118;922690;-70
2022/03/03 00:10:45;;;;;;;3.95;3.65;;;;;;;5.35;66.55;100614.36;456605;114;922916;-69
2022/03/03 00:11:49;;;;;;;4.42;4.04;;;;;;;5.36;66.57;100610.64;460812;113;922485;-70
2022/03/03 00:12:52;;;;;;;4.29;3.89;;;;;;;5.35;66.66;100606.25;457876;114;930570;-68
2022/03/03 00:13:55;;;;;;;3.98;3.67;;;;;;;5.35;66.70;100617.06;457675;114;922601;-69
2022/03/03 00:14:59;;;;;;;4.41;4.06;;;;;;;5.35;66.71;100608.95;459585;113;922585;-72
2022/03/03 00:16:03;;;;;;;3.54;3.26;;;;;;;5.36;66.67;100607.94;456663;114;922477;-71
2022/03/03 00:17:07;;;;;;;3.72;3.49;;;;;;;5.35;66.62;100611.66;456298;114;923102;-70
2022/03/03 00:18:11;;;;;;;3.06;2.86;;;;;;;5.34;66.61;100609.16;457775;113;922668;-69
2022/03/03 00:19:14;;;;;;;3.40;3.20;;;;;;;5.34;66.67;100599.19;458617;113;922969;-70
2022/03/03 00:20:19;;;;;;;3.68;3.39;;;;;;;5.33;66.63;100602.06;456453;114;922325;-69
2022/03/03 00:21:22;;;;;;;3.64;3.34;;;;;;;5.32;66.61;100603.92;460711;114;922981;-69
2022/03/03 00:22:26;;;;;;;3.41;3.17;;;;;;;5.32;66.64;100613.89;461467;113;922892;-70
2022/03/03 00:23:30;;;;;;;3.30;3.01;;;;;;;5.32;66.68;100609.33;459421;114;922578;-69
2022/03/03 00:24:33;;;;;;;3.57;3.31;;;;;;;5.32;66.68;100612.03;456733;114;922295;-71
2022/03/03 00:25:36;;;;;;;3.76;3.54;;;;;;;5.32;66.69;100608.48;458461;113;922643;-71
2022/03/03 00:26:40;;;;;;;3.89;3.59;;;;;;;5.32;66.68;100606.63;459789;114;922493;-70
2022/03/03 00:27:43;;;;;;;5.78;5.13;;;;;;;5.32;66.57;100612.03;456273;114;923219;-69
2022/03/03 00:28:46;;;;;;;6.29;5.51;;;;;;;5.32;66.72;100603.92;459806;114;922985;-68
2022/03/03 00:29:51;;;;;;;8.41;6.26;;;;;;;5.33;66.68;100602.06;459655;114;924966;-71
2022/03/03 00:30:55;;;;;;;5.72;4.93;;;;;;;5.33;66.63;100597.50;462042;114;930320;-70
2022/03/03 00:31:58;;;;;;;7.50;5.31;;;;;;;5.33;66.58;100594.80;462751;114;922843;-71
2022/03/03 00:33:02;;;;;;;6.49;5.36;;;;;;;5.32;66.38;100587.70;458505;114;925610;-69
2022/03/03 00:34:05;;;;;;;5.66;5.06;;;;;;;5.31;66.48;100577.06;456444;114;922608;-70
2022/03/03 00:35:10;;;;;;;6.62;5.73;;;;;;;5.30;66.53;100578.92;456217;114;922496;-69
2022/03/03 00:36:14;;;;;;;8.82;6.40;;;;;;;5.27;66.41;100576.59;460790;113;930599;-70
2022/03/03 00:37:17;;;;;;;9.90;7.04;;;;;;;5.27;66.41;100576.59;458812;113;922938;-69
2022/03/03 00:38:21;;;;;;;7.39;6.08;;;;;;;5.26;66.57;100572.20;458445;114;922571;-69
2022/03/03 00:39:24;;;;;;;9.63;7.54;;;;;;;5.27;66.58;100573.05;442679;118;930666;-71
2022/03/03 00:40:27;;;;;;;10.91;7.61;;;;;;;5.26;66.58;100571.36;459477;113;922640;-70
2022/03/03 00:41:31;;;;;;;11.59;8.88;;;;;;;5.25;66.67;100573.22;455778;114;922971;-71
2022/03/03 00:42:34;;;;;;;10.21;8.15;;;;;;;5.25;66.67;100567.81;457060;114;922660;-70
2022/03/03 00:43:38;;;;;;;11.18;8.71;;;;;;;5.26;66.64;100572.20;460324;113;922604;-70
2022/03/03 00:44:41;;;;;;;10.54;9.20;;;;;;;5.26;66.69;100585.72;456287;114;922732;-70
2022/03/03 00:45:44;;;;;;;9.46;8.17;;;;;;;5.27;66.70;100579.30;457960;114;922646;-69
2022/03/03 00:46:48;;;;;;;7.86;7.08;;;;;;;5.27;66.51;100578.45;459371;113;930530;-71
2022/03/03 00:47:51;;;;;;;6.36;5.60;;;;;;;5.27;66.67;100584.70;461929;114;922495;-70
2022/03/03 00:48:55;;;;;;;5.19;4.69;;;;;;;5.26;66.61;100572.20;461784;114;923498;-70
2022/03/03 00:49:58;;;;;;;5.15;4.65;;;;;;;5.26;66.69;100574.91;461613;114;922512;-69
2022/03/03 00:51:06;;;;;;;5.12;4.63;;;;;;;5.27;66.68;100576.59;461375;113;922997;-69
2022/03/03 00:52:07;;;;;;;3.79;3.44;;;;;;;5.26;66.56;100571.36;458654;114;922522;-71
2022/03/03 00:53:10;;;;;;;3.15;2.91;;;;;;;5.25;66.61;100564.27;461477;114;922501;-69
2022/03/03 00:54:14;;;;;;;3.08;2.78;;;;;;;5.25;66.56;100556.16;458662;113;922668;-71
2022/03/03 00:55:17;;;;;;;3.23;2.96;;;;;;;5.23;66.52;100558.22;457950;114;922434;-70
2022/03/03 00:56:22;;;;;;;3.07;2.84;;;;;;;5.22;66.58;100562.78;457995;114;922570;-70
2022/03/03 00:57:25;;;;;;;3.31;3.11;;;;;;;5.20;66.55;100554.00;459558;114;922605;-70
2022/03/03 00:58:29;;;;;;;3.26;3.06;;;;;;;5.21;66.52;100557.55;459241;114;928963;-70
2022/03/03 00:59:32;;;;;;;3.12;2.82;;;;;;;5.20;66.62;100555.86;456078;114;922682;-69
2022/03/03 01:00:36;;;;;;;3.67;3.37;;;;;;;5.19;66.64;100557.72;460314;114;922457;-70
2022/03/03 01:01:40;;;;;;;3.26;2.97;;;;;;;5.19;66.66;100556.88;458314;113;930535;-69
2022/03/03 01:02:43;;;;;;;2.91;2.71;;;;;;;5.17;66.63;100557.08;463167;114;922653;-68
2022/03/03 01:03:47;;;;;;;3.65;2.98;;;;;;;5.17;66.65;100558.94;463023;114;922747;-70
2022/03/03 01:04:50;;;;;;;2.76;2.56;;;;;;;5.16;66.69;100557.25;459932;113;930584;-68
2022/03/03 01:05:53;;;;;;;3.07;2.84;;;;;;;5.15;66.68;100553.70;457440;114;922957;-70
2022/03/03 01:06:57;;;;;;;3.12;2.92;;;;;;;5.14;66.68;100549.31;456415;114;923098;-69
2022/03/03 01:08:00;;;;;;;2.89;2.69;;;;;;;5.13;66.68;100552.22;460334;113;923049;-71
2022/03/03 01:09:03;;;;;;;3.26;3.04;;;;;;;5.13;66.68;100552.22;457917;114;923114;-68
2022/03/03 01:10:09;;;;;;;4.80;4.36;;;;;;;5.13;66.70;100554.92;459395;114;923288;-69
2022/03/03 01:11:12;;;;;;;4.02;3.67;;;;;;;5.11;66.79;100546.14;459911;113;930563;-68
2022/03/03 01:12:16;;;;;;;4.26;3.86;;;;;;;5.11;66.79;100546.14;459632;113;922541;-71
2022/03/03 01:13:21;;;;;;;5.02;4.59;;;;;;;5.09;66.77;100557.12;462219;114;923020;-68
2022/03/03 01:14:25;;;;;;;4.00;3.64;;;;;;;5.07;66.81;100550.23;459330;113;922977;-71
2022/03/03 01:15:29;;;;;;;4.00;3.68;;;;;;;5.06;66.86;100545.84;451642;116;922739;-67
2022/03/03 01:16:32;;;;;;;3.16;2.86;;;;;;;5.04;66.89;100543.31;462258;114;923088;-68
2022/03/03 01:17:37;;;;;;;3.82;3.48;;;;;;;5.04;66.89;100544.16;460625;114;930627;-70
2022/03/03 01:18:42;;;;;;;3.62;3.32;;;;;;;5.04;66.87;100535.20;459353;113;922730;-70
2022/03/03 01:19:45;;;;;;;4.04;3.74;;;;;;;5.02;67.16;100535.37;462700;114;923086;-68
2022/03/03 01:20:49;;;;;;;3.94;3.64;;;;;;;5.02;67.16;100535.37;457316;114;922997;-69
2022/03/03 01:21:52;;;;;;;3.71;3.36;;;;;;;5.03;66.91;100530.81;458247;113;922544;-69
2022/03/03 01:22:56;;;;;;;3.83;3.52;;;;;;;5.02;66.94;100526.43;456750;114;930879;-70
2022/03/03 01:23:59;;;;;;;3.53;3.07;;;;;;;5.02;66.97;100524.57;457307;114;930485;-70
2022/03/03 01:25:03;;;;;;;3.82;3.52;;;;;;;5.02;67.01;100527.27;460835;113;930458;-70
2022/03/03 01:26:08;;;;;;;3.75;3.45;;;;;;;5.02;66.98;100531.83;458889;114;923099;-69
2022/03/03 01:27:11;;;;;;;4.09;3.79;;;;;;;5.02;67.05;100521.87;462506;114;922492;-71
2022/03/03 01:28:15;;;;;;;4.59;4.19;;;;;;;5.02;67.06;100521.87;460985;114;922595;-70
2022/03/03 01:29:18;;;;;;;4.43;4.04;;;;;;;5.04;67.05;100524.40;461109;113;922941;-70
2022/03/03 01:30:22;;;;;;;4.35;4.00;;;;;;;5.05;67.01;100515.28;457135;114;922544;-69
2022/03/03 01:31:25;;;;;;;3.82;3.56;;;;;;;5.04;67.03;100508.19;456205;114;922591;-68
2022/03/03 01:32:28;;;;;;;3.29;3.09;;;;;;;5.04;67.05;100505.48;460141;113;922566;-70
2022/03/03 01:33:32;;;;;;;3.96;3.66;;;;;;;5.05;67.00;100509.88;458147;113;922640;-71
2022/03/03 01:34:35;;;;;;;3.68;3.38;;;;;;;5.05;66.99;100507.17;456037;114;922547;-71
2022/03/03 01:35:40;;;;;;;3.37;3.17;;;;;;;5.04;66.98;100509.03;459587;114;922883;-69
2022/03/03 01:36:44;;;;;;;3.35;3.10;;;;;;;5.02;66.95;100511.06;457898;113;922642;-69
2022/03/03 01:37:47;;;;;;;2.96;2.76;;;;;;;5.00;66.99;100515.83;457387;114;922587;-69
2022/03/03 01:38:50;;;;;;;3.02;2.83;;;;;;;4.99;66.93;100516.84;460638;113;922836;-69
2022/03/03 01:39:54;;;;;;;3.16;2.94;;;;;;;4.96;67.00;100510.97;459873;114;922561;-72
2022/03/03 01:40:57;;;;;;;3.39;3.19;;;;;;;4.96;67.09;100516.38;462025;114;922498;-70
2022/03/03 01:42:00;;;;;;;3.00;2.80;;;;;;;4.96;67.17;100519.08;462739;114;922523;-70
2022/03/03 01:43:04;;;;;;;3.00;2.80;;;;;;;4.94;67.12;100508.44;458352;113;923179;-68
2022/03/03 01:44:08;;;;;;;2.89;2.69;;;;;;;4.92;66.86;100517.73;461532;114;922682;-70
2022/03/03 01:45:11;;;;;;;2.94;2.71;;;;;;;4.89;67.18;100513.55;461652;114;922653;-70
2022/03/03 01:46:16;;;;;;;3.08;2.88;;;;;;;4.89;67.25;100508.14;460057;113;922626;-70
2022/03/03 01:47:22;;;;;;;3.07;2.87;;;;;;;4.90;67.37;100517.09;460253;114;928161;-70
2022/03/03 01:48:25;;;;;;;3.20;2.92;;;;;;;4.91;67.37;100511.48;461791;114;922693;-69
2022/03/03 01:49:29;;;;;;;3.81;3.51;;;;;;;4.93;67.36;100511.31;460675;114;922798;-70
2022/03/03 01:50:32;;;;;;;3.96;3.62;;;;;;;4.94;67.36;100511.14;459823;113;931028;-69
2022/03/03 01:51:35;;;;;;;5.32;4.30;;;;;;;4.93;67.44;100514.86;456542;114;922929;-69
2022/03/03 01:52:39;;;;;;;4.49;4.09;;;;;;;4.92;67.29;100520.42;457416;114;923111;-69
2022/03/03 01:53:43;;;;;;;5.08;3.87;;;;;;;4.89;67.34;100518.95;458602;113;922627;-68
2022/03/03 01:54:47;;;;;;;5.78;4.24;;;;;;;4.89;67.42;100521.64;456464;114;922965;-69
2022/03/03 01:55:52;;;;;;;7.01;4.47;;;;;;;4.90;67.43;100517.09;456214;114;923118;-70
2022/03/03 01:56:55;;;;;;;5.68;5.12;;;;;;;4.90;67.38;100520.63;459401;113;922562;-70
2022/03/03 01:58:02;;;;;;;6.16;5.01;;;;;;;4.90;67.43;100514.38;460228;113;922757;-70
2022/03/03 01:59:06;;;;;;;8.26;6.57;;;;;;;4.92;67.50;100517.73;458238;113;922630;-70
2022/03/03 02:00:12;;;;;;;10.68;6.52;;;;;;;4.92;67.53;100507.77;459460;114;922478;-71
2022/03/03 02:01:16;;;;;;;10.89;6.75;;;;;;;4.94;67.48;100507.59;460138;113;923071;-71
2022/03/03 02:02:20;;;;;;;8.20;6.38;;;;;;;4.94;67.47;100511.14;461646;114;922511;-71
2022/03/03 02:03:24;;;;;;;8.69;5.89;;;;;;;4.96;67.47;100500.16;457167;113;922489;-67
2022/03/03 02:04:28;;;;;;;7.94;5.75;;;;;;;4.96;67.48;100505.56;460609;113;930632;-71
2022/03/03 02:05:31;;;;;;;9.88;6.44;;;;;;;4.97;67.45;100493.70;459493;113;922708;-71
2022/03/03 02:06:35;;;;;;;9.90;7.02;;;;;;;4.97;67.46;100496.41;456025;114;922750;-71
2022/03/03 02:07:38;;;;;;;9.46;6.79;;;;;;;4.97;67.50;100507.22;461004;113;924568;-72
2022/03/03 02:08:41;;;;;;;9.46;6.79;;;;;;;4.98;67.51;100503.50;458987;113;930477;-70
2022/03/03 02:09:45;;;;;;;6.94;5.61;;;;;;;4.99;67.52;100502.48;463792;114;922621;-70
2022/03/03 02:10:49;;;;;;;5.97;4.49;;;;;;;5.00;67.56;100498.77;459906;114;922786;-71
2022/03/03 02:11:52;;;;;;;4.58;3.93;;;;;;;5.00;67.52;100499.61;459466;113;930567;-70
2022/03/03 02:12:56;;;;;;;4.77;4.27;;;;;;;5.02;67.51;100496.70;455863;114;930672;-70
2022/03/03 02:14:04;;;;;;;4.46;3.81;;;;;;;5.01;67.45;100495.89;456094;114;923445;-69
2022/03/03 02:15:10;;;;;;;3.95;3.32;;;;;;;5.03;67.47;100498.39;457733;113;930584;-70
2022/03/03 02:16:14;;;;;;;3.68;3.33;;;;;;;5.06;67.48;100497.20;457670;114;922516;-67
2022/03/03 02:17:18;;;;;;;3.86;3.53;;;;;;;5.06;67.47;100487.23;456892;113;922868;-70
2022/03/03 02:18:22;;;;;;;3.38;3.08;;;;;;;5.08;67.38;100492.44;458544;113;930621;-71
2022/03/03 02:19:25;;;;;;;3.72;3.44;;;;;;;5.09;67.39;100486.86;457486;114;922843;-69
2022/03/03 02:20:30;;;;;;;3.53;3.23;;;;;;;5.09;67.36;100481.45;458432;114;922552;-71
2022/03/03 02:21:33;;;;;;;3.53;3.29;;;;;;;5.10;67.15;100483.14;457047;113;923164;-70
2022/03/03 02:22:37;;;;;;;3.79;3.52;;;;;;;5.09;67.23;100481.45;455818;114;922601;-70
2022/03/03 02:23:41;;;;;;;3.16;2.96;;;;;;;5.07;67.28;100480.81;458245;114;922831;-69
2022/03/03 02:24:44;;;;;;;3.04;2.84;;;;;;;5.07;67.26;100477.27;460818;114;922657;-69
2022/03/03 02:25:48;;;;;;;3.26;2.98;;;;;;;5.06;67.27;100479.13;459255;114;930531;-69
2022/03/03 02:26:53;;;;;;;3.52;3.30;;;;;;;5.07;67.28;100471.87;456929;114;922589;-69
2022/03/03 02:27:57;;;;;;;2.99;2.79;;;;;;;5.06;67.24;100479.13;460183;113;930543;-69
2022/03/03 02:29:01;;;;;;;3.92;3.24;;;;;;;5.05;67.26;100480.15;462105;114;922554;-70
2022/03/03 02:30:04;;;;;;;3.26;2.96;;;;;;;5.06;67.37;100479.13;458931;114;922600;-69
2022/03/03 02:31:08;;;;;;;2.92;2.72;;;;;;;5.04;67.34;100476.60;459891;113;923840;-70
2022/03/03 02:32:11;;;;;;;3.72;3.46;;;;;;;5.04;67.34;100478.46;459763;114;922961;-70
2022/03/03 02:33:14;;;;;;;3.15;2.95;;;;;;;5.03;67.34;100477.62;460516;113;922752;-69
2022/03/03 02:34:18;;;;;;;3.17;2.98;;;;;;;5.04;67.42;100471.20;457069;114;922554;-71
2022/03/03 02:35:21;;;;;;;3.17;2.84;;;;;;;5.03;67.45;100468.67;461739;113;923019;-68
2022/03/03 02:36:27;;;;;;;3.41;3.21;;;;;;;5.03;67.44;100468.67;461293;114;922619;-70
2022/03/03 02:37:37;;;;;;;3.47;3.27;;;;;;;5.04;67.40;100475.76;439247;118;922588;-68
2022/03/03 02:38:41;;;;;;;3.02;2.82;;;;;;;5.04;67.40;100470.36;458824;113;922513;-72
2022/03/03 02:39:44;;;;;;;2.96;2.76;;;;;;;5.04;67.38;100473.90;458074;114;922537;-68
2022/03/03 02:40:48;;;;;;;3.21;3.01;;;;;;;5.05;67.40;100469.34;456417;114;922565;-69
2022/03/03 02:41:51;;;;;;;3.16;2.96;;;;;;;5.05;67.40;100469.34;457834;113;922633;-71
2022/03/03 02:42:55;;;;;;;3.44;3.22;;;;;;;5.05;67.38;100463.94;462658;114;922850;-69
2022/03/03 02:43:59;;;;;;;3.26;3.05;;;;;;;5.07;67.40;100466.47;462023;114;930589;-70
2022/03/03 02:45:04;;;;;;;3.27;3.07;;;;;;;5.07;67.41;100461.06;459044;113;923091;-71
2022/03/03 02:46:09;;;;;;;3.39;3.19;;;;;;;5.09;67.39;100456.30;461433;114;922592;-70
2022/03/03 02:47:12;;;;;;;3.78;3.49;;;;;;;5.09;67.42;100453.59;461251;114;923048;-70
2022/03/03 02:48:15;;;;;;;3.22;3.02;;;;;;;5.10;67.38;100463.38;458596;113;923152;-70
2022/03/03 02:49:19;;;;;;;3.46;3.26;;;;;;;5.09;67.41;100453.59;459298;113;922952;-69
2022/03/03 02:50:25;;;;;;;3.23;3.03;;;;;;;5.09;67.38;100459.84;455907;114;930541;-69
2022/03/03 02:51:29;;;;;;;3.49;3.24;;;;;;;5.10;67.40;100456.12;456381;114;923279;-70
2022/03/03 02:52:32;;;;;;;3.39;3.19;;;;;;;5.11;67.43;100455.10;459558;113;922688;-71
2022/03/03 02:53:36;;;;;;;3.26;3.04;;;;;;;5.13;67.45;100463.84;456654;114;922627;-70
2022/03/03 02:54:40;;;;;;;3.20;3.00;;;;;;;5.15;67.38;100458.27;458424;114;922474;-69
2022/03/03 02:55:43;;;;;;;3.19;2.99;;;;;;;5.14;67.29;100457.42;458346;113;922858;-71
2022/03/03 02:58:10;;;;;;;3.51;3.31;;;;;;;5.15;67.32;100458.27;456326;114;922995;-69
2022/03/03 02:59:13;;;;;;;3.13;2.92;;;;;;;5.15;67.28;100456.41;459542;113;922531;-68
2022/03/03 03:00:17;;;;;;;3.16;2.96;;;;;;;5.14;67.30;100453.87;458004;114;923065;-70
2022/03/03 03:01:21;;;;;;;3.70;3.45;;;;;;;5.15;67.32;100455.56;458900;114;922910;-69
2022/03/03 03:02:24;;;;;;;3.68;3.40;;;;;;;5.15;67.35;100453.70;440455;117;922713;-70
2022/03/03 03:03:28;;;;;;;3.39;3.16;;;;;;;5.15;67.29;100452.86;459951;114;930483;-71
2022/03/03 03:04:31;;;;;;;3.67;3.39;;;;;;;5.15;67.29;100451.00;458568;114;930569;-71
2022/03/03 03:05:34;;;;;;;3.88;3.58;;;;;;;5.14;67.28;100449.31;459038;114;922660;-70
2022/03/03 03:06:38;;;;;;;3.69;3.39;;;;;;;5.14;67.24;100441.20;460733;113;922926;-70
2022/03/03 03:07:41;;;;;;;3.75;3.54;;;;;;;5.14;67.29;100443.91;457055;114;922931;-69
2022/03/03 03:08:44;;;;;;;4.18;3.88;;;;;;;5.15;67.29;100444.75;459249;114;922551;-69
2022/03/03 03:09:47;;;;;;;3.59;3.37;;;;;;;5.14;67.27;100443.91;457708;114;923188;-69
2022/03/03 03:10:51;;;;;;;3.64;3.44;;;;;;;5.14;67.21;100445.77;457554;114;922855;-70
2022/03/03 03:11:54;;;;;;;4.09;3.79;;;;;;;5.12;67.20;100440.58;456725;114;922525;-69
2022/03/03 03:12:58;;;;;;;3.68;3.46;;;;;;;5.11;67.18;100436.19;456858;114;922867;-71
2022/03/03 03:14:01;;;;;;;3.79;3.52;;;;;;;5.10;67.22;100439.91;461434;113;922891;-70
2022/03/03 03:15:05;;;;;;;4.93;4.56;;;;;;;5.09;67.30;100438.22;459854;114;930611;-68
2022/03/03 03:16:10;;;;;;;4.08;3.84;;;;;;;5.10;67.35;100430.95;460047;114;922542;-68
2022/03/03 03:17:13;;;;;;;4.07;3.77;;;;;;;5.11;67.34;100436.19;459995;113;923066;-69
2022/03/03 03:18:19;;;;;;;3.87;3.57;;;;;;;5.11;67.46;100425.38;455848;114;922601;-69
2022/03/03 03:19:23;;;;;;;3.97;3.67;;;;;;;5.13;67.37;100441.42;456594;114;922988;-70
2022/03/03 03:20:26;;;;;;;4.41;4.11;;;;;;;5.14;67.37;100432.26;460838;113;922779;-69
2022/03/03 03:21:30;;;;;;;3.60;3.40;;;;;;;5.14;67.33;100432.26;457408;113;924178;-69
2022/03/03 03:22:34;;;;;;;4.11;3.83;;;;;;;5.14;67.23;100424.99;456183;114;930518;-69
2022/03/03 03:23:38;;;;;;;3.35;3.15;;;;;;;5.13;67.17;100428.72;459082;113;922757;-68
2022/03/03 03:24:41;;;;;;;3.55;3.23;;;;;;;5.13;67.25;100427.91;457176;114;922560;-69
2022/03/03 03:25:45;;;;;;;4.04;3.74;;;;;;;5.13;67.27;100426.02;455965;114;922603;-70
2022/03/03 03:26:49;;;;;;;3.39;3.19;;;;;;;5.13;67.32;100420.61;458219;114;922780;-70
2022/03/03 03:27:52;;;;;;;3.96;3.66;;;;;;;5.13;67.37;100428.72;459603;113;930507;-69
2022/03/03 03:28:55;;;;;;;3.16;2.86;;;;;;;5.14;67.42;100416.05;443561;118;922680;-69
2022/03/03 03:29:59;;;;;;;3.94;3.66;;;;;;;5.16;67.42;100416.71;459181;114;923197;-70
2022/03/03 03:31:02;;;;;;;4.14;3.84;;;;;;;5.16;67.42;100416.71;459354;113;930599;-67
2022/03/03 03:32:06;;;;;;;3.56;3.36;;;;;;;5.16;67.37;100412.15;461785;114;930598;-70
2022/03/03 03:33:10;;;;;;;3.48;3.28;;;;;;;5.16;67.40;100414.85;456720;114;922581;-69
2022/03/03 03:34:13;;;;;;;3.67;3.37;;;;;;;5.17;67.30;100415.69;459678;113;922464;-69
2022/03/03 03:35:16;;;;;;;3.65;3.42;;;;;;;5.16;67.31;100419.41;462551;113;922537;-69
2022/03/03 03:36:21;;;;;;;3.53;3.33;;;;;;;5.16;67.36;100412.15;462491;114;922580;-70
2022/03/03 03:37:25;;;;;;;3.26;3.06;;;;;;;5.16;67.28;100406.74;458628;113;922599;-69
2022/03/03 03:38:28;;;;;;;3.13;2.93;;;;;;;5.17;67.25;100402.18;459261;114;922654;-72
2022/03/03 03:39:31;;;;;;;3.17;2.98;;;;;;;5.17;67.29;100404.88;456100;114;923507;-69
2022/03/03 03:40:35;;;;;;;2.96;2.76;;;;;;;5.17;67.32;100403.02;456457;114;922638;-70
2022/03/03 03:41:39;;;;;;;3.67;3.47;;;;;;;5.18;67.28;100399.30;458335;113;923489;-70
2022/03/03 03:42:42;;;;;;;4.14;3.84;;;;;;;5.18;67.17;100395.76;457435;114;930473;-69
2022/03/03 03:43:46;;;;;;;3.59;3.29;;;;;;;5.16;67.23;100397.80;456548;113;923423;-70
2022/03/03 03:44:49;;;;;;;2.73;2.53;;;;;;;5.16;67.22;100389.69;458939;114;922606;-70
2022/03/03 03:45:53;;;;;;;3.21;3.01;;;;;;;5.15;67.17;100401.52;459293;114;930306;-68
2022/03/03 03:46:56;;;;;;;2.99;2.79;;;;;;;5.14;67.13;100391.72;463206;114;922670;-69
2022/03/03 03:48:00;;;;;;;2.76;2.56;;;;;;;5.12;67.14;100391.93;460666;114;923128;-69
2022/03/03 03:49:05;;;;;;;2.90;2.70;;;;;;;5.11;67.18;100379.44;459199;113;922492;-70
2022/03/03 03:50:12;;;;;;;2.96;2.76;;;;;;;5.10;67.20;100383.16;458429;114;923891;-71
2022/03/03 03:51:16;;;;;;;2.62;2.42;;;;;;;5.11;67.29;100390.25;462599;114;922921;-70
2022/03/03 03:52:19;;;;;;;3.03;2.83;;;;;;;5.12;67.31;100378.42;458059;113;922685;-69
2022/03/03 03:53:23;;;;;;;2.91;2.71;;;;;;;5.13;67.26;100381.96;461812;114;922983;-69
2022/03/03 03:54:26;;;;;;;3.03;2.83;;;;;;;5.13;67.31;100376.55;461944;114;922560;-69
2022/03/03 03:55:30;;;;;;;2.74;2.54;;;;;;;5.13;67.35;100377.36;458871;113;922695;-69
2022/03/03 03:56:33;;;;;;;2.72;2.52;;;;;;;5.13;67.32;100377.36;457223;113;922489;-71
2022/03/03 03:57:37;;;;;;;2.74;2.54;;;;;;;5.14;67.26;100373.65;460212;114;930366;-71
2022/03/03 03:58:40;;;;;;;3.41;3.20;;;;;;;5.14;67.26;100373.65;457261;113;930226;-70
2022/03/03 03:59:44;;;;;;;3.56;3.36;;;;;;;5.14;67.27;100370.94;460818;113;923073;-68
2022/03/03 04:00:47;;;;;;;2.88;2.68;;;;;;;5.14;67.32;100370.94;462426;114;922501;-68
2022/03/03 04:01:51;;;;;;;3.26;3.06;;;;;;;5.13;67.27;100376.55;460649;114;930383;-70
2022/03/03 04:02:55;;;;;;;2.62;2.42;;;;;;;5.12;67.27;100372.17;460293;113;922632;-70
2022/03/03 04:03:58;;;;;;;2.78;2.58;;;;;;;5.13;67.22;100373.85;455727;114;922573;-70
2022/03/03 04:05:01;;;;;;;3.18;2.98;;;;;;;5.13;67.23;100368.45;456790;114;930342;-69
2022/03/03 04:06:05;;;;;;;2.53;2.34;;;;;;;5.12;67.18;100367.61;459826;113;922566;-69
2022/03/03 04:07:09;;;;;;;2.65;2.45;;;;;;;5.11;67.09;100368.63;457260;114;922641;-70
2022/03/03 04:08:12;;;;;;;2.65;2.45;;;;;;;5.10;67.08;100366.94;458018;114;922530;-70
2022/03/03 04:09:15;;;;;;;3.77;3.36;;;;;;;5.09;67.16;100364.41;452799;116;922705;-67
2022/03/03 04:10:20;;;;;;;4.92;3.24;;;;;;;5.08;67.17;100362.73;452212;114;922692;-68
2022/03/03 04:11:23;;;;;;;4.31;3.91;;;;;;;5.07;67.17;100364.62;456912;113;930662;-69
2022/03/03 04:12:27;;;;;;;3.12;2.86;;;;;;;5.07;67.22;100359.22;458907;114;930487;-70
2022/03/03 04:13:30;;;;;;;3.49;3.09;;;;;;;5.07;67.24;100359.22;460348;114;928889;-71
2022/03/03 04:14:34;;;;;;;4.28;3.86;;;;;;;5.07;67.24;100359.22;459802;114;923062;-68
2022/03/03 04:15:37;;;;;;;4.74;4.28;;;;;;;5.08;67.22;100349.22;461649;114;922657;-69
2022/03/03 04:16:40;;;;;;;6.70;5.97;;;;;;;5.08;67.22;100347.36;459485;114;923554;-68
2022/03/03 04:17:44;;;;;;;6.40;5.71;;;;;;;5.09;67.34;100349.05;455715;114;922605;-69
2022/03/03 04:18:47;;;;;;;5.96;5.24;;;;;;;5.10;67.29;100344.48;459860;114;922654;-69
2022/03/03 04:19:50;;;;;;;6.94;6.23;;;;;;;5.11;67.22;100343.46;460885;114;922647;-70
2022/03/03 04:20:54;;;;;;;6.33;5.72;;;;;;;5.10;67.21;100345.32;462780;113;922461;-69
2022/03/03 04:21:57;;;;;;;5.69;5.18;;;;;;;5.10;67.16;100339.08;461765;114;922566;-69
2022/03/03 04:23:01;;;;;;;5.66;5.10;;;;;;;5.09;67.21;100340.09;460788;114;922957;-71
2022/03/03 04:24:06;;;;;;;4.62;4.22;;;;;;;5.07;67.18;100343.00;459473;113;930552;-68
2022/03/03 04:25:12;;;;;;;4.17;3.86;;;;;;;5.06;67.23;100344.02;455949;114;922677;-68
2022/03/03 04:26:16;;;;;;;4.30;4.00;;;;;;;5.07;67.22;100342.16;458406;114;922528;-68
2022/03/03 04:27:19;;;;;;;3.54;3.24;;;;;;;5.07;67.25;100347.56;461830;114;922590;-69
2022/03/03 04:28:22;;;;;;;2.73;2.53;;;;;;;5.07;67.24;100343.00;461355;113;922566;-70
2022/03/03 04:29:26;;;;;;;2.74;2.56;;;;;;;5.06;67.10;100335.08;459116;113;922893;-69
2022/03/03 04:30:30;;;;;;;3.56;2.99;;;;;;;5.03;67.03;100347.92;459207;114;922629;-68
2022/03/03 04:31:33;;;;;;;3.44;3.19;;;;;;;5.02;67.14;100348.94;458060;113;922545;-69
2022/03/03 04:32:38;;;;;;;3.14;2.88;;;;;;;5.02;67.15;100339.98;461462;114;922946;-70
2022/03/03 04:33:42;;;;;;;2.44;2.25;;;;;;;5.02;67.22;100348.09;457043;113;930363;-70
2022/03/03 04:34:46;;;;;;;2.38;2.18;;;;;;;5.02;67.33;100346.23;455504;115;923259;-70
2022/03/03 04:35:49;;;;;;;2.03;1.93;;;;;;;5.04;67.28;100346.06;445029;116;922669;-70
2022/03/03 04:36:52;;;;;;;2.19;2.09;;;;;;;5.04;67.28;100346.06;447253;118;922822;-69
2022/03/03 04:37:56;;;;;;;2.08;1.98;;;;;;;5.04;67.34;100348.77;440014;119;923116;-70
2022/03/03 04:38:59;;;;;;;2.16;2.04;;;;;;;5.06;67.31;100351.28;444147;118;930360;-69
2022/03/03 04:40:04;;;;;;;2.01;1.91;;;;;;;5.06;67.36;100343.18;449607;118;922665;-70
2022/03/03 04:41:08;;;;;;;2.12;1.98;;;;;;;5.07;67.40;100340.30;448742;117;930878;-70
2022/03/03 04:42:11;;;;;;;1.98;1.87;;;;;;;5.09;67.42;100340.09;445163;116;922622;-70
2022/03/03 04:43:15;;;;;;;2.41;2.26;;;;;;;5.11;67.43;100343.46;438177;118;930395;-70
2022/03/03 04:44:18;;;;;;;2.52;2.32;;;;;;;5.12;67.45;100342.44;449528;116;922594;-68
2022/03/03 04:45:23;;;;;;;1.80;1.70;;;;;;;5.14;67.47;100338.52;446747;116;922854;-73
2022/03/03 04:46:26;;;;;;;2.04;1.94;;;;;;;5.15;67.38;100336.66;438524;118;922936;-68
2022/03/03 04:47:31;;;;;;;2.43;2.24;;;;;;;5.16;67.40;100335.63;438019;118;922900;-70
2022/03/03 04:48:35;;;;;;;2.22;2.11;;;;;;;5.17;67.34;100338.16;449503;117;922521;-69
2022/03/03 04:49:39;;;;;;;2.23;2.10;;;;;;;5.18;67.28;100339.84;449033;117;922670;-67
2022/03/03 04:50:42;;;;;;;1.89;1.79;;;;;;;5.19;67.23;100340.66;440858;118;922851;-70
2022/03/03 04:51:46;;;;;;;1.89;1.79;;;;;;;5.19;67.19;100332.55;448555;118;922644;-70
2022/03/03 04:52:49;;;;;;;1.94;1.84;;;;;;;5.18;67.05;100330.89;448325;118;922899;-70
2022/03/03 04:53:52;;;;;;;2.09;1.95;;;;;;;5.16;67.37;100330.23;449596;118;930352;-71
2022/03/03 04:54:56;;;;;;;1.98;1.86;;;;;;;5.16;67.37;100330.23;440491;116;922714;-69
2022/03/03 04:55:59;;;;;;;1.92;1.82;;;;;;;5.16;67.24;100332.93;440839;117;922625;-72
2022/03/03 04:57:03;;;;;;;1.56;1.46;;;;;;;5.15;67.20;100332.09;436975;118;923226;-67